Terminal Aerodrome Forecast
Issued by NWS

Home | Current Version | Previous Version | Text Only | Print | Product List | Glossary On
Versions: 1 2 3 4 5 6 7 8 9 10 11 12 13 14 15 16 17 18 19 20 21 22 23 24 25 26
691
FTUS45 KGJT 220529
TAFEGE
TAF
KEGE 220529Z 2206/2306 VRB03KT P6SM SCT200
     FM222000 22007KT P6SM VCTS SCT100CB BKN150
     FM230200 13005KT P6SM BKN090
      AMD LTD TO CLD VIS AND WIND TIL 221300=

USA.gov is the U.S. government's official web portal to all federal, state and local government web resources and services.